LTAC/ESB METAR and TAF weather

Enter ICAO airport designator
Station Type Date Time Source
LTAC METAR 2020/09/24 11:20 UTC NOAA

LTAC 241120Z 24010KT 210V270 9999 SCT040 SCT100 26/08 Q1015 NOSIG


Station Type Date Time Source
LTAC Decoded METAR 2020/09/24 11:20 UTC NOAA

Ankara / Esenboga, Turkey (LTAC) 40-07N 032-59E 949M
Sep 24, 2020 - 07:20 AM EDT / 2020.09.24 1120 UTC
Wind: from the WSW (240 degrees) at 12 MPH (10 KT) (direction variable):0
Visibility: greater than 7 mile(s):0
Sky conditions: partly cloudy
Temperature: 78 F (26 C)
Dew Point: 46 F (8 C)
Relative Humidity: 31%
Pressure (altimeter): 29.97 in. Hg (1015 hPa)
ob: LTAC 241120Z 24010KT 210V270 9999 SCT040 SCT100 26/08 Q1015 NOSIG
cycle: 11

Station Type Date Time Source
LTAC TAF 2020/09/24 12:03 UTC NOAA

TAF LTAC 241040Z 2412/2512 VRB02KT 9999 SCT040
TEMPO 2504/2508 -SHRA BKN030 BKN090

Example: see airport list